Etusivu
METAR-TAF:

METAR-TAF

Lentoasemat :

Luulajan lentoasema

Luulaja, Ruotsi

Leveyspiiri: 65-33N, Pituuspiiri: 022-08E, korkeus merenpinnasta: 17 m

Tämänhetkinen sää

Tämä raportti tehtiin 17 minuuttia sitten, kello 00.50 UTC
tyyntä
Lämpötila 19°C
Kosteus 94%
Ilmanpaine 1003 hPa
Näkyvyys 10 km tai enemmän
heikkoja vesikuuroja

METAR: ESPA 220050Z AUTO 00000KT 9999 -SHRA FEW082/// OVC100/// 19/18 Q1003

Aika: 03:07 (01:07 UTC)

Sääennuste

Tämä raportti tehtiin 10 tuntia ja 37 minuuttia sitten, kello 14.30 UTC
Ennuste voimassa 21. päivästä klo 15 UTC - 21. päivään klo 19 UTC
Tuuli 8 kn kaakosta
Näkyvyys 10 km tai enemmän
ei pilviä alle 1500 m:ssä eikä cumulonimbus-pilviä

TAF: ESPA 211430Z 2115/2119 13008KT CAVOK

Säähavainnot ja -ennusteet yli 4000 lentoasemalta (METAR- ja TAF-raportit).

Käytössä olevat sääasemat on merkitty karttaan keltaisilla ja punaisilla pisteillä.

Aseta hiiri pisteen päälle nähdäksesi sääaseman nimen.

Klikkaa sitten nähdäksesi säähavainnot ja -ennusteet.

Kartan vaihtaminen: klikkaa mustalla rastilla varustettuja vihreitä pisteitä, niin voit zoomata sisään; viivalla varustettua vihreää pistettä, niin voit zoomata ulos tai vihreitä nuolia, niin pääset viereisille kartoille.


METAR-TAF: